createdAt,value
2022-11-25T00:04:44.589Z,59.27
2022-11-25T00:09:50.094Z,66.87
2022-11-25T00:14:55.098Z,92.03
2022-11-25T00:20:02.109Z,86.00
2022-11-25T00:25:08.423Z,84.63
2022-11-25T00:30:14.419Z,80.75
2022-11-25T00:35:19.829Z,80.07
2022-11-25T00:40:25.171Z,79.47
2022-11-25T00:45:31.104Z,72.53
2022-11-25T00:50:36.638Z,71.10
2022-11-25T00:55:50.275Z,67.30
2022-11-25T01:00:55.468Z,61.23
2022-11-25T01:06:08.087Z,55.77
2022-11-25T01:11:16.160Z,52.80
2022-11-25T01:16:22.090Z,56.53
2022-11-25T01:21:30.392Z,53.53
2022-11-25T01:26:36.900Z,53.50
2022-11-25T01:31:42.050Z,60.47
2022-11-25T01:36:47.618Z,67.57
2022-11-25T01:41:53.045Z,61.00
2022-11-25T01:47:01.804Z,64.37
2022-11-25T01:52:10.573Z,63.77
2022-11-25T01:57:18.525Z,57.83
2022-11-25T02:02:24.514Z,59.93
2022-11-25T02:07:39.474Z,60.40
2022-11-25T02:12:48.565Z,62.90
2022-11-25T02:17:54.135Z,61.90
2022-11-25T02:23:08.620Z,56.97
2022-11-25T02:28:22.294Z,52.33
2022-11-25T02:33:28.155Z,53.30
2022-11-25T02:38:44.717Z,53.60
2022-11-25T02:43:50.612Z,51.20
2022-11-25T02:49:13.492Z,50.55
2022-11-25T02:54:05.790Z,50.85
2022-11-25T02:59:12.671Z,51.63
2022-11-25T03:04:18.381Z,51.97
2022-11-25T03:09:23.903Z,53.60
2022-11-25T03:14:29.658Z,60.07
2022-11-25T03:19:35.327Z,68.60
2022-11-25T03:24:40.292Z,54.87
2022-11-25T03:29:45.465Z,52.70
2022-11-25T03:34:50.347Z,52.30
2022-11-25T03:39:55.255Z,52.80
2022-11-25T03:45:00.509Z,63.70
2022-11-25T03:50:06.600Z,61.80
2022-11-25T03:55:14.096Z,53.90
2022-11-25T04:00:19.665Z,51.70
2022-11-25T04:05:24.601Z,56.00
2022-11-25T04:10:30.043Z,51.00
2022-11-25T04:15:35.754Z,46.75
2022-11-25T04:20:41.220Z,47.38
2022-11-25T04:25:46.794Z,52.37
2022-11-25T04:30:51.751Z,48.80
2022-11-25T04:35:56.811Z,48.57
2022-11-25T04:41:02.720Z,48.50
2022-11-25T04:46:15.689Z,51.67
2022-11-25T04:51:15.278Z,54.90
2022-11-25T04:56:21.890Z,60.73
2022-11-25T05:01:27.098Z,52.15
2022-11-25T05:06:33.441Z,50.47
2022-11-25T05:11:39.348Z,47.80
2022-11-25T05:16:44.384Z,44.23
2022-11-25T05:21:50.050Z,43.30
2022-11-25T05:26:55.584Z,43.00
2022-11-25T05:32:00.894Z,41.73
2022-11-25T05:37:06.969Z,29.17
2022-11-25T05:42:12.018Z,41.57
2022-11-25T05:47:16.926Z,43.60
2022-11-25T05:52:21.822Z,42.80
2022-11-25T05:57:29.201Z,46.80
2022-11-25T06:02:34.745Z,46.10
2022-11-25T06:07:40.515Z,44.97
2022-11-25T06:12:46.345Z,49.43
2022-11-25T06:17:52.050Z,44.10
2022-11-25T06:22:59.769Z,43.38
2022-11-25T06:28:12.726Z,42.43
2022-11-25T06:33:13.667Z,42.50
2022-11-25T06:38:19.214Z,43.47
2022-11-25T06:43:24.116Z,42.17
2022-11-25T06:48:30.403Z,42.00
2022-11-25T06:53:36.995Z,41.28
2022-11-25T06:58:43.254Z,41.88
2022-11-25T07:03:50.082Z,42.30
2022-11-25T07:08:55.753Z,46.88
2022-11-25T07:14:06.793Z,47.03
2022-11-25T07:19:13.922Z,53.47
2022-11-25T07:24:19.213Z,63.53
2022-11-25T07:34:31.848Z,49.47
2022-11-25T07:39:37.328Z,47.15
2022-11-25T07:44:43.289Z,48.13
2022-11-25T07:49:48.155Z,49.67
2022-11-25T07:54:54.868Z,54.37
2022-11-25T07:59:59.783Z,56.73
2022-11-25T08:05:05.425Z,60.93
2022-11-25T08:10:11.066Z,62.17
2022-11-25T08:15:16.077Z,53.80
2022-11-25T08:20:21.738Z,50.70
2022-11-25T08:25:26.857Z,61.20
2022-11-25T08:30:31.743Z,68.97
2022-11-25T08:35:39.016Z,67.93
2022-11-25T08:40:45.985Z,66.03
2022-11-25T08:45:51.697Z,61.58
2022-11-25T08:50:57.010Z,61.87
2022-11-25T08:56:02.350Z,68.30
2022-11-25T09:01:08.139Z,60.33
2022-11-25T09:06:14.183Z,54.00
2022-11-25T09:11:20.336Z,53.07
2022-11-25T09:16:26.957Z,53.15
2022-11-25T09:26:38.649Z,54.67
2022-11-25T09:31:46.263Z,57.55
2022-11-25T09:36:52.056Z,55.67
2022-11-25T09:42:26.370Z,64.90
2022-11-25T09:47:34.970Z,63.87
2022-11-25T09:53:04.660Z,62.35
2022-11-25T09:58:35.102Z,62.17
2022-11-25T10:03:53.034Z,78.30
2022-11-25T10:09:04.126Z,70.53
2022-11-25T10:14:20.764Z,65.83
2022-11-25T10:19:31.731Z,65.62
2022-11-25T10:24:41.195Z,65.87
2022-11-25T10:29:45.760Z,68.43
2022-11-25T10:34:56.826Z,74.80
2022-11-25T10:40:02.213Z,72.90
2022-11-25T10:45:09.580Z,69.43
2022-11-25T10:50:52.580Z,60.77
2022-11-25T10:56:06.502Z,59.17
2022-11-25T11:01:23.790Z,57.30
2022-11-25T11:06:35.041Z,55.27
2022-11-25T11:11:48.384Z,48.43
2022-11-25T11:16:55.995Z,50.93
2022-11-25T11:22:18.403Z,52.60
2022-11-25T11:27:25.843Z,51.37
2022-11-25T11:32:31.239Z,54.43
2022-11-25T11:37:48.557Z,55.47
2022-11-25T11:43:06.816Z,55.78
2022-11-25T11:48:29.796Z,53.13
2022-11-25T11:53:58.055Z,52.53
2022-11-25T11:59:20.886Z,51.17
2022-11-25T12:04:43.960Z,47.63
2022-11-25T12:09:57.838Z,47.73
2022-11-25T12:15:09.077Z,48.27
2022-11-25T12:20:39.118Z,46.68
2022-11-25T12:25:45.520Z,48.07
2022-11-25T12:31:04.718Z,47.62
2022-11-25T12:36:13.791Z,47.33
2022-11-25T12:41:41.100Z,47.95
2022-11-25T12:46:54.983Z,44.70
2022-11-25T12:52:22.688Z,43.23
2022-11-25T12:57:49.154Z,42.53
2022-11-25T13:03:13.772Z,42.33
2022-11-25T13:08:38.733Z,42.70
2022-11-25T13:13:50.142Z,43.30
2022-11-25T13:18:57.328Z,42.90
2022-11-25T13:24:02.651Z,43.33
2022-11-25T13:29:17.093Z,43.70
2022-11-25T13:34:27.925Z,43.73
2022-11-25T13:39:38.522Z,43.65
2022-11-25T13:44:59.094Z,42.83
2022-11-25T13:50:11.944Z,43.63
2022-11-25T13:55:21.229Z,44.37
2022-11-25T14:00:38.368Z,44.87
2022-11-25T14:06:04.739Z,44.63
2022-11-25T14:11:13.197Z,43.73
2022-11-25T14:16:39.958Z,44.50
2022-11-25T14:22:13.107Z,43.70
2022-11-25T14:27:32.856Z,43.67
2022-11-25T14:32:57.699Z,44.00
2022-11-25T14:38:28.278Z,43.70
2022-11-25T14:43:37.669Z,43.73
2022-11-25T14:48:43.924Z,48.30
2022-11-25T14:53:51.334Z,47.67
2022-11-25T14:58:58.314Z,42.73
2022-11-25T15:04:15.383Z,42.23
2022-11-25T15:14:33.425Z,65.77
2022-11-25T15:19:40.133Z,59.47
2022-11-25T15:24:54.749Z,50.48
2022-11-25T15:29:58.615Z,45.28
2022-11-25T15:35:05.629Z,45.38
2022-11-25T15:40:37.968Z,46.00
2022-11-25T15:45:48.366Z,45.87
2022-11-25T15:50:54.437Z,46.60
2022-11-25T15:56:02.156Z,47.27
2022-11-25T16:01:22.720Z,48.50
2022-11-25T16:06:30.135Z,47.70
2022-11-25T16:11:38.812Z,48.23
2022-11-25T16:16:44.325Z,47.30
2022-11-25T16:21:56.813Z,47.73
2022-11-25T16:27:19.783Z,48.80
2022-11-25T16:32:27.849Z,47.90
2022-11-25T16:37:32.920Z,49.03
2022-11-25T16:42:39.654Z,47.20
2022-11-25T16:47:44.882Z,46.77
2022-11-25T16:52:50.901Z,48.45
2022-11-25T16:57:55.826Z,47.07
2022-11-25T17:03:01.490Z,48.13
2022-11-25T17:08:07.071Z,47.40
2022-11-25T17:13:15.864Z,52.70
2022-11-25T17:18:20.831Z,44.90
2022-11-25T17:23:27.140Z,47.63
2022-11-25T17:28:32.435Z,32.70
2022-11-25T17:33:38.127Z,59.23
2022-11-25T17:38:43.141Z,50.63
2022-11-25T17:43:52.165Z,49.90
2022-11-25T17:49:01.190Z,51.33
2022-11-25T17:54:06.851Z,51.87
2022-11-25T17:59:24.258Z,46.53
2022-11-25T18:04:38.504Z,51.00
2022-11-25T18:09:44.856Z,52.73
2022-11-25T18:14:49.917Z,61.17
2022-11-25T18:19:55.635Z,61.43
2022-11-25T18:25:05.263Z,77.45
2022-11-25T18:30:19.594Z,68.27
2022-11-25T18:35:36.179Z,47.00
2022-11-25T18:40:42.950Z,48.00
2022-11-25T18:45:48.936Z,47.58
2022-11-25T18:50:57.098Z,47.40
2022-11-25T18:56:02.174Z,47.27
2022-11-25T19:01:10.406Z,48.10
2022-11-25T19:06:15.483Z,48.57
2022-11-25T19:11:36.635Z,49.30
2022-11-25T19:16:43.278Z,51.18
2022-11-25T19:21:48.909Z,63.28
2022-11-25T19:26:56.595Z,57.17
2022-11-25T19:32:03.595Z,65.53
2022-11-25T19:37:12.336Z,54.47
2022-11-25T19:42:17.882Z,53.37
2022-11-25T19:47:27.449Z,69.87
2022-11-25T19:52:38.297Z,79.27
2022-11-25T19:57:43.524Z,85.47
2022-11-25T20:02:51.564Z,85.80
2022-11-25T20:07:57.083Z,70.40
2022-11-25T20:13:03.178Z,72.27
2022-11-25T20:18:12.596Z,77.50
2022-11-25T20:23:27.008Z,69.70
2022-11-25T20:28:33.030Z,76.23
2022-11-25T20:33:40.081Z,77.10
2022-11-25T20:38:48.247Z,77.27
2022-11-25T20:43:53.452Z,60.60
2022-11-25T20:49:02.410Z,58.97
2022-11-25T20:54:11.564Z,50.20
2022-11-25T20:59:22.481Z,79.77
2022-11-25T21:04:28.332Z,89.03
2022-11-25T21:09:36.876Z,87.70
2022-11-25T21:14:42.422Z,68.83
2022-11-25T21:19:47.690Z,58.13
2022-11-25T21:24:53.084Z,51.53
2022-11-25T21:29:58.431Z,60.80
2022-11-25T21:35:04.379Z,60.40
2022-11-25T21:40:14.971Z,64.43
2022-11-25T21:45:19.985Z,56.27
2022-11-25T21:50:26.819Z,50.00
2022-11-25T21:55:33.641Z,49.97
2022-11-25T22:00:39.759Z,46.55
2022-11-25T22:05:44.802Z,45.20
2022-11-25T22:10:52.912Z,52.13
2022-11-25T22:16:01.670Z,52.53
2022-11-25T22:21:06.708Z,59.90
2022-11-25T22:26:23.663Z,57.50
2022-11-25T22:31:30.059Z,56.50
2022-11-25T22:36:38.043Z,55.75
2022-11-25T22:41:48.825Z,54.77
2022-11-25T22:46:54.273Z,57.30
2022-11-25T22:51:59.719Z,54.97
2022-11-25T22:57:04.669Z,55.97
2022-11-25T23:02:13.132Z,66.20
2022-11-25T23:07:19.607Z,69.83
2022-11-25T23:12:25.348Z,62.17
2022-11-25T23:17:30.569Z,54.90
2022-11-25T23:22:35.894Z,49.80
2022-11-25T23:27:41.101Z,51.83
2022-11-25T23:32:46.961Z,48.10
2022-11-25T23:37:57.256Z,49.50
2022-11-25T23:43:03.465Z,50.70
2022-11-25T23:48:10.370Z,52.20
2022-11-25T23:53:24.136Z,53.80
2022-11-25T23:58:30.285Z,50.37
